sensor_id;sensor_type;location;lat;lon;timestamp;P1;durP1;ratioP1;P2;durP2;ratioP2
9823;SDS011;4951;50.778;7.196;2022-10-13T00:00:32;17.10;;;13.47;;
9823;SDS011;4951;50.778;7.196;2022-10-13T00:03:00;13.47;;;11.13;;
9823;SDS011;4951;50.778;7.196;2022-10-13T00:05:28;14.33;;;10.77;;
9823;SDS011;4951;50.778;7.196;2022-10-13T00:07:55;14.20;;;11.90;;
9823;SDS011;4951;50.778;7.196;2022-10-13T00:10:23;15.73;;;12.03;;
9823;SDS011;4951;50.778;7.196;2022-10-13T00:12:52;15.30;;;10.67;;
9823;SDS011;4951;50.778;7.196;2022-10-13T00:15:20;13.17;;;10.40;;
9823;SDS011;4951;50.778;7.196;2022-10-13T00:17:50;14.23;;;11.40;;
9823;SDS011;4951;50.778;7.196;2022-10-13T00:20:17;15.40;;;11.17;;
9823;SDS011;4951;50.778;7.196;2022-10-13T00:22:44;12.97;;;10.63;;
9823;SDS011;4951;50.778;7.196;2022-10-13T00:25:11;13.50;;;11.30;;
9823;SDS011;4951;50.778;7.196;2022-10-13T00:27:39;11.67;;;10.43;;
9823;SDS011;4951;50.778;7.196;2022-10-13T00:30:09;14.00;;;10.73;;
9823;SDS011;4951;50.778;7.196;2022-10-13T00:32:37;15.93;;;11.80;;
9823;SDS011;4951;50.778;7.196;2022-10-13T00:35:05;16.83;;;13.13;;
9823;SDS011;4951;50.778;7.196;2022-10-13T00:37:32;15.60;;;11.70;;
9823;SDS011;4951;50.778;7.196;2022-10-13T00:39:59;11.97;;;9.80;;
9823;SDS011;4951;50.778;7.196;2022-10-13T00:42:26;15.50;;;11.37;;
9823;SDS011;4951;50.778;7.196;2022-10-13T00:44:58;16.13;;;11.70;;
9823;SDS011;4951;50.778;7.196;2022-10-13T00:47:30;16.97;;;12.17;;
9823;SDS011;4951;50.778;7.196;2022-10-13T00:50:00;14.30;;;11.87;;
9823;SDS011;4951;50.778;7.196;2022-10-13T00:52:29;12.50;;;10.87;;
9823;SDS011;4951;50.778;7.196;2022-10-13T00:54:58;15.07;;;12.27;;
9823;SDS011;4951;50.778;7.196;2022-10-13T00:57:29;19.33;;;11.80;;
9823;SDS011;4951;50.778;7.196;2022-10-13T00:59:56;12.90;;;11.53;;
9823;SDS011;4951;50.778;7.196;2022-10-13T01:02:25;16.30;;;10.10;;
9823;SDS011;4951;50.778;7.196;2022-10-13T01:04:58;13.70;;;10.77;;
9823;SDS011;4951;50.778;7.196;2022-10-13T01:07:26;13.93;;;11.43;;
9823;SDS011;4951;50.778;7.196;2022-10-13T01:09:53;12.03;;;10.13;;
9823;SDS011;4951;50.778;7.196;2022-10-13T01:12:27;14.13;;;12.00;;
9823;SDS011;4951;50.778;7.196;2022-10-13T01:15:05;14.13;;;11.37;;
9823;SDS011;4951;50.778;7.196;2022-10-13T01:17:40;13.80;;;11.13;;
9823;SDS011;4951;50.778;7.196;2022-10-13T01:20:38;16.47;;;12.07;;
9823;SDS011;4951;50.778;7.196;2022-10-13T01:23:21;12.63;;;10.90;;
9823;SDS011;4951;50.778;7.196;2022-10-13T01:26:04;12.53;;;10.80;;
9823;SDS011;4951;50.778;7.196;2022-10-13T01:28:51;12.93;;;8.90;;
9823;SDS011;4951;50.778;7.196;2022-10-13T01:31:32;17.10;;;11.93;;
9823;SDS011;4951;50.778;7.196;2022-10-13T01:34:05;14.60;;;12.13;;
9823;SDS011;4951;50.778;7.196;2022-10-13T01:36:41;14.10;;;11.60;;
9823;SDS011;4951;50.778;7.196;2022-10-13T01:39:21;12.50;;;10.77;;
9823;SDS011;4951;50.778;7.196;2022-10-13T01:41:54;12.40;;;10.67;;
9823;SDS011;4951;50.778;7.196;2022-10-13T01:44:30;14.20;;;10.67;;
9823;SDS011;4951;50.778;7.196;2022-10-13T01:47:03;13.37;;;10.97;;
9823;SDS011;4951;50.778;7.196;2022-10-13T01:49:33;14.70;;;11.27;;
9823;SDS011;4951;50.778;7.196;2022-10-13T01:52:02;16.10;;;11.80;;
9823;SDS011;4951;50.778;7.196;2022-10-13T01:54:33;14.13;;;10.77;;
9823;SDS011;4951;50.778;7.196;2022-10-13T01:57:00;13.87;;;9.77;;
9823;SDS011;4951;50.778;7.196;2022-10-13T01:59:28;14.00;;;10.57;;
9823;SDS011;4951;50.778;7.196;2022-10-13T02:02:02;14.10;;;11.47;;
9823;SDS011;4951;50.778;7.196;2022-10-13T02:04:38;11.10;;;8.83;;
9823;SDS011;4951;50.778;7.196;2022-10-13T02:07:14;11.23;;;9.80;;
9823;SDS011;4951;50.778;7.196;2022-10-13T02:09:49;14.10;;;10.10;;
9823;SDS011;4951;50.778;7.196;2022-10-13T02:12:23;13.80;;;11.70;;
9823;SDS011;4951;50.778;7.196;2022-10-13T02:14:54;10.13;;;9.10;;
9823;SDS011;4951;50.778;7.196;2022-10-13T02:17:25;14.30;;;11.53;;
9823;SDS011;4951;50.778;7.196;2022-10-13T02:19:54;14.17;;;11.30;;
9823;SDS011;4951;50.778;7.196;2022-10-13T02:22:21;14.00;;;11.73;;
9823;SDS011;4951;50.778;7.196;2022-10-13T02:24:53;13.80;;;10.83;;
9823;SDS011;4951;50.778;7.196;2022-10-13T02:27:21;13.37;;;10.27;;
9823;SDS011;4951;50.778;7.196;2022-10-13T02:29:48;10.97;;;9.80;;
9823;SDS011;4951;50.778;7.196;2022-10-13T02:32:17;13.57;;;10.77;;
9823;SDS011;4951;50.778;7.196;2022-10-13T02:34:46;14.67;;;10.60;;
9823;SDS011;4951;50.778;7.196;2022-10-13T02:37:13;11.77;;;9.13;;
9823;SDS011;4951;50.778;7.196;2022-10-13T02:39:40;12.33;;;10.10;;
9823;SDS011;4951;50.778;7.196;2022-10-13T02:42:09;11.33;;;9.57;;
9823;SDS011;4951;50.778;7.196;2022-10-13T02:44:37;9.90;;;8.83;;
9823;SDS011;4951;50.778;7.196;2022-10-13T02:47:04;11.33;;;10.17;;
9823;SDS011;4951;50.778;7.196;2022-10-13T02:49:31;12.50;;;10.70;;
9823;SDS011;4951;50.778;7.196;2022-10-13T02:51:59;13.20;;;11.13;;
9823;SDS011;4951;50.778;7.196;2022-10-13T02:54:26;15.77;;;13.10;;
9823;SDS011;4951;50.778;7.196;2022-10-13T02:56:53;13.40;;;11.10;;
9823;SDS011;4951;50.778;7.196;2022-10-13T02:59:20;12.70;;;10.53;;
9823;SDS011;4951;50.778;7.196;2022-10-13T03:01:47;15.40;;;12.10;;
9823;SDS011;4951;50.778;7.196;2022-10-13T03:04:14;13.40;;;11.70;;
9823;SDS011;4951;50.778;7.196;2022-10-13T03:06:41;16.30;;;11.33;;
9823;SDS011;4951;50.778;7.196;2022-10-13T03:09:12;12.47;;;11.17;;
9823;SDS011;4951;50.778;7.196;2022-10-13T03:11:40;14.43;;;11.77;;
9823;SDS011;4951;50.778;7.196;2022-10-13T03:14:07;12.83;;;11.20;;
9823;SDS011;4951;50.778;7.196;2022-10-13T03:16:34;15.33;;;10.57;;
9823;SDS011;4951;50.778;7.196;2022-10-13T03:19:01;13.37;;;11.37;;
9823;SDS011;4951;50.778;7.196;2022-10-13T03:21:29;16.60;;;10.40;;
9823;SDS011;4951;50.778;7.196;2022-10-13T03:23:56;14.97;;;10.80;;
9823;SDS011;4951;50.778;7.196;2022-10-13T03:26:25;12.20;;;9.53;;
9823;SDS011;4951;50.778;7.196;2022-10-13T03:28:52;12.53;;;10.73;;
9823;SDS011;4951;50.778;7.196;2022-10-13T03:31:19;16.10;;;11.33;;
9823;SDS011;4951;50.778;7.196;2022-10-13T03:33:46;13.13;;;11.40;;
9823;SDS011;4951;50.778;7.196;2022-10-13T03:36:14;15.63;;;10.83;;
9823;SDS011;4951;50.778;7.196;2022-10-13T03:38:41;14.50;;;11.57;;
9823;SDS011;4951;50.778;7.196;2022-10-13T03:41:10;13.23;;;10.30;;
9823;SDS011;4951;50.778;7.196;2022-10-13T03:43:40;14.33;;;11.93;;
9823;SDS011;4951;50.778;7.196;2022-10-13T03:46:09;15.07;;;11.53;;
9823;SDS011;4951;50.778;7.196;2022-10-13T03:48:37;18.23;;;12.87;;
9823;SDS011;4951;50.778;7.196;2022-10-13T03:51:05;13.63;;;10.60;;
9823;SDS011;4951;50.778;7.196;2022-10-13T03:53:33;16.10;;;12.20;;
9823;SDS011;4951;50.778;7.196;2022-10-13T03:56:00;15.30;;;11.37;;
9823;SDS011;4951;50.778;7.196;2022-10-13T03:58:32;16.27;;;12.57;;
9823;SDS011;4951;50.778;7.196;2022-10-13T04:01:02;13.13;;;11.00;;
9823;SDS011;4951;50.778;7.196;2022-10-13T04:03:30;17.10;;;12.60;;
9823;SDS011;4951;50.778;7.196;2022-10-13T04:05:59;13.83;;;11.70;;
9823;SDS011;4951;50.778;7.196;2022-10-13T04:08:27;13.13;;;11.23;;
9823;SDS011;4951;50.778;7.196;2022-10-13T04:10:57;17.30;;;12.37;;
9823;SDS011;4951;50.778;7.196;2022-10-13T04:13:25;15.03;;;13.43;;
9823;SDS011;4951;50.778;7.196;2022-10-13T04:15:52;22.30;;;13.40;;
9823;SDS011;4951;50.778;7.196;2022-10-13T04:18:20;19.37;;;14.30;;
9823;SDS011;4951;50.778;7.196;2022-10-13T04:20:47;16.87;;;11.20;;
9823;SDS011;4951;50.778;7.196;2022-10-13T04:23:14;19.10;;;12.20;;
9823;SDS011;4951;50.778;7.196;2022-10-13T04:25:46;22.90;;;14.10;;
9823;SDS011;4951;50.778;7.196;2022-10-13T04:28:13;23.43;;;14.50;;
9823;SDS011;4951;50.778;7.196;2022-10-13T04:30:40;21.03;;;13.50;;
9823;SDS011;4951;50.778;7.196;2022-10-13T04:33:08;21.90;;;13.70;;
9823;SDS011;4951;50.778;7.196;2022-10-13T04:35:39;15.93;;;12.50;;
9823;SDS011;4951;50.778;7.196;2022-10-13T04:38:07;26.97;;;14.63;;
9823;SDS011;4951;50.778;7.196;2022-10-13T04:40:34;19.63;;;14.73;;
9823;SDS011;4951;50.778;7.196;2022-10-13T04:43:01;25.07;;;14.10;;
9823;SDS011;4951;50.778;7.196;2022-10-13T04:45:28;27.03;;;13.87;;
9823;SDS011;4951;50.778;7.196;2022-10-13T04:47:55;33.00;;;14.63;;
9823;SDS011;4951;50.778;7.196;2022-10-13T04:50:22;25.93;;;14.13;;
9823;SDS011;4951;50.778;7.196;2022-10-13T04:52:58;21.73;;;13.57;;
9823;SDS011;4951;50.778;7.196;2022-10-13T04:55:25;20.03;;;12.57;;
9823;SDS011;4951;50.778;7.196;2022-10-13T04:57:52;24.53;;;13.53;;
9823;SDS011;4951;50.778;7.196;2022-10-13T05:00:20;26.27;;;15.03;;
9823;SDS011;4951;50.778;7.196;2022-10-13T05:02:46;24.30;;;14.40;;
9823;SDS011;4951;50.778;7.196;2022-10-13T05:05:14;27.00;;;14.60;;
9823;SDS011;4951;50.778;7.196;2022-10-13T05:07:41;24.47;;;13.50;;
9823;SDS011;4951;50.778;7.196;2022-10-13T05:10:09;25.43;;;14.20;;
9823;SDS011;4951;50.778;7.196;2022-10-13T05:12:36;28.23;;;14.80;;
9823;SDS011;4951;50.778;7.196;2022-10-13T05:15:04;25.10;;;14.37;;
9823;SDS011;4951;50.778;7.196;2022-10-13T05:17:31;24.13;;;14.30;;
9823;SDS011;4951;50.778;7.196;2022-10-13T05:20:00;21.50;;;14.53;;
9823;SDS011;4951;50.778;7.196;2022-10-13T05:22:27;23.00;;;13.80;;
9823;SDS011;4951;50.778;7.196;2022-10-13T05:24:55;25.27;;;15.30;;
9823;SDS011;4951;50.778;7.196;2022-10-13T05:27:23;25.60;;;14.33;;
9823;SDS011;4951;50.778;7.196;2022-10-13T05:29:50;22.93;;;14.57;;
9823;SDS011;4951;50.778;7.196;2022-10-13T05:32:17;23.70;;;15.13;;
9823;SDS011;4951;50.778;7.196;2022-10-13T05:34:46;26.90;;;16.03;;
9823;SDS011;4951;50.778;7.196;2022-10-13T05:37:13;30.37;;;14.63;;
9823;SDS011;4951;50.778;7.196;2022-10-13T05:39:41;28.63;;;16.20;;
9823;SDS011;4951;50.778;7.196;2022-10-13T05:42:08;28.03;;;13.57;;
9823;SDS011;4951;50.778;7.196;2022-10-13T05:44:36;29.00;;;15.73;;
9823;SDS011;4951;50.778;7.196;2022-10-13T05:47:03;27.77;;;16.67;;
9823;SDS011;4951;50.778;7.196;2022-10-13T05:49:30;31.43;;;15.57;;
9823;SDS011;4951;50.778;7.196;2022-10-13T05:52:01;29.77;;;16.50;;
9823;SDS011;4951;50.778;7.196;2022-10-13T05:54:32;24.73;;;13.50;;
9823;SDS011;4951;50.778;7.196;2022-10-13T05:57:02;29.83;;;15.83;;
9823;SDS011;4951;50.778;7.196;2022-10-13T05:59:33;29.30;;;15.40;;
9823;SDS011;4951;50.778;7.196;2022-10-13T06:02:04;26.80;;;13.37;;
9823;SDS011;4951;50.778;7.196;2022-10-13T06:04:36;25.07;;;16.00;;
9823;SDS011;4951;50.778;7.196;2022-10-13T06:07:05;19.33;;;13.27;;
9823;SDS011;4951;50.778;7.196;2022-10-13T06:09:34;18.73;;;12.80;;
9823;SDS011;4951;50.778;7.196;2022-10-13T06:12:03;20.13;;;13.53;;
9823;SDS011;4951;50.778;7.196;2022-10-13T06:14:30;19.90;;;13.07;;
9823;SDS011;4951;50.778;7.196;2022-10-13T06:17:01;24.33;;;14.40;;
9823;SDS011;4951;50.778;7.196;2022-10-13T06:19:29;25.60;;;15.03;;
9823;SDS011;4951;50.778;7.196;2022-10-13T06:22:04;26.00;;;15.60;;
9823;SDS011;4951;50.778;7.196;2022-10-13T06:24:32;26.23;;;15.40;;
9823;SDS011;4951;50.778;7.196;2022-10-13T06:26:59;21.73;;;14.60;;
9823;SDS011;4951;50.778;7.196;2022-10-13T06:29:26;26.93;;;14.50;;
9823;SDS011;4951;50.778;7.196;2022-10-13T06:31:53;19.90;;;14.93;;
9823;SDS011;4951;50.778;7.196;2022-10-13T06:34:20;24.60;;;15.83;;
9823;SDS011;4951;50.778;7.196;2022-10-13T06:36:48;21.10;;;14.27;;
9823;SDS011;4951;50.778;7.196;2022-10-13T06:39:15;21.63;;;14.80;;
9823;SDS011;4951;50.778;7.196;2022-10-13T06:41:42;25.53;;;15.27;;
9823;SDS011;4951;50.778;7.196;2022-10-13T06:44:10;22.37;;;14.17;;
9823;SDS011;4951;50.778;7.196;2022-10-13T06:46:37;22.73;;;14.33;;
9823;SDS011;4951;50.778;7.196;2022-10-13T06:49:04;20.17;;;14.83;;
9823;SDS011;4951;50.778;7.196;2022-10-13T06:51:34;24.80;;;14.50;;
9823;SDS011;4951;50.778;7.196;2022-10-13T06:54:02;24.80;;;15.50;;
9823;SDS011;4951;50.778;7.196;2022-10-13T06:56:32;19.67;;;13.90;;
9823;SDS011;4951;50.778;7.196;2022-10-13T06:59:05;23.33;;;15.73;;
9823;SDS011;4951;50.778;7.196;2022-10-13T07:01:34;23.77;;;14.47;;
9823;SDS011;4951;50.778;7.196;2022-10-13T07:04:04;22.77;;;15.70;;
9823;SDS011;4951;50.778;7.196;2022-10-13T07:06:31;21.13;;;14.07;;
9823;SDS011;4951;50.778;7.196;2022-10-13T07:09:02;23.60;;;15.80;;
9823;SDS011;4951;50.778;7.196;2022-10-13T07:11:29;20.97;;;15.57;;
9823;SDS011;4951;50.778;7.196;2022-10-13T07:13:57;16.60;;;13.23;;
9823;SDS011;4951;50.778;7.196;2022-10-13T07:16:25;18.67;;;14.30;;
9823;SDS011;4951;50.778;7.196;2022-10-13T07:18:52;17.53;;;14.93;;
9823;SDS011;4951;50.778;7.196;2022-10-13T07:21:19;19.83;;;15.03;;
9823;SDS011;4951;50.778;7.196;2022-10-13T07:23:47;20.87;;;14.10;;
9823;SDS011;4951;50.778;7.196;2022-10-13T07:26:15;20.93;;;15.93;;
9823;SDS011;4951;50.778;7.196;2022-10-13T07:28:43;22.03;;;13.40;;
9823;SDS011;4951;50.778;7.196;2022-10-13T07:31:11;24.77;;;15.97;;
9823;SDS011;4951;50.778;7.196;2022-10-13T07:33:39;23.90;;;14.50;;
9823;SDS011;4951;50.778;7.196;2022-10-13T07:36:07;23.47;;;14.70;;
9823;SDS011;4951;50.778;7.196;2022-10-13T07:38:35;30.97;;;15.90;;
9823;SDS011;4951;50.778;7.196;2022-10-13T07:41:03;26.97;;;16.30;;
9823;SDS011;4951;50.778;7.196;2022-10-13T07:43:33;27.50;;;16.13;;
9823;SDS011;4951;50.778;7.196;2022-10-13T07:46:03;30.93;;;17.00;;
9823;SDS011;4951;50.778;7.196;2022-10-13T07:48:32;25.03;;;15.20;;
9823;SDS011;4951;50.778;7.196;2022-10-13T07:51:02;32.47;;;17.10;;
9823;SDS011;4951;50.778;7.196;2022-10-13T07:53:30;27.83;;;16.40;;
9823;SDS011;4951;50.778;7.196;2022-10-13T07:55:59;30.47;;;16.17;;
9823;SDS011;4951;50.778;7.196;2022-10-13T07:58:27;26.17;;;16.07;;
9823;SDS011;4951;50.778;7.196;2022-10-13T08:00:56;23.20;;;15.83;;
9823;SDS011;4951;50.778;7.196;2022-10-13T08:03:24;25.23;;;15.37;;
9823;SDS011;4951;50.778;7.196;2022-10-13T08:05:51;20.30;;;15.57;;
9823;SDS011;4951;50.778;7.196;2022-10-13T08:08:18;21.13;;;15.73;;
9823;SDS011;4951;50.778;7.196;2022-10-13T08:10:46;20.97;;;15.50;;
9823;SDS011;4951;50.778;7.196;2022-10-13T08:13:14;21.80;;;15.47;;
9823;SDS011;4951;50.778;7.196;2022-10-13T08:15:42;21.37;;;15.83;;
9823;SDS011;4951;50.778;7.196;2022-10-13T08:18:12;19.03;;;14.57;;
9823;SDS011;4951;50.778;7.196;2022-10-13T08:20:40;22.20;;;14.17;;
9823;SDS011;4951;50.778;7.196;2022-10-13T08:23:08;21.73;;;15.53;;
9823;SDS011;4951;50.778;7.196;2022-10-13T08:25:40;19.30;;;14.03;;
9823;SDS011;4951;50.778;7.196;2022-10-13T08:28:14;22.73;;;14.93;;
9823;SDS011;4951;50.778;7.196;2022-10-13T08:30:44;25.60;;;13.10;;
9823;SDS011;4951;50.778;7.196;2022-10-13T08:33:12;22.53;;;13.87;;
9823;SDS011;4951;50.778;7.196;2022-10-13T08:35:41;21.47;;;14.07;;
9823;SDS011;4951;50.778;7.196;2022-10-13T08:38:08;22.90;;;15.07;;
9823;SDS011;4951;50.778;7.196;2022-10-13T08:40:35;18.90;;;12.97;;
9823;SDS011;4951;50.778;7.196;2022-10-13T08:43:04;21.87;;;13.50;;
9823;SDS011;4951;50.778;7.196;2022-10-13T08:45:34;18.07;;;13.67;;
9823;SDS011;4951;50.778;7.196;2022-10-13T08:48:02;21.70;;;13.17;;
9823;SDS011;4951;50.778;7.196;2022-10-13T08:50:34;15.33;;;12.53;;
9823;SDS011;4951;50.778;7.196;2022-10-13T08:53:05;18.80;;;13.33;;
9823;SDS011;4951;50.778;7.196;2022-10-13T08:55:43;18.63;;;13.70;;
9823;SDS011;4951;50.778;7.196;2022-10-13T08:58:14;19.93;;;13.10;;
9823;SDS011;4951;50.778;7.196;2022-10-13T09:00:44;19.30;;;13.93;;
9823;SDS011;4951;50.778;7.196;2022-10-13T09:03:18;20.93;;;13.77;;
9823;SDS011;4951;50.778;7.196;2022-10-13T09:05:54;16.43;;;12.80;;
9823;SDS011;4951;50.778;7.196;2022-10-13T09:08:28;19.67;;;12.90;;
9823;SDS011;4951;50.778;7.196;2022-10-13T09:11:01;21.17;;;13.17;;
9823;SDS011;4951;50.778;7.196;2022-10-13T09:13:28;24.60;;;14.47;;
9823;SDS011;4951;50.778;7.196;2022-10-13T09:15:56;21.20;;;13.90;;
9823;SDS011;4951;50.778;7.196;2022-10-13T09:18:26;19.63;;;13.13;;
9823;SDS011;4951;50.778;7.196;2022-10-13T09:21:10;24.40;;;13.83;;
9823;SDS011;4951;50.778;7.196;2022-10-13T09:23:44;23.87;;;14.93;;
9823;SDS011;4951;50.778;7.196;2022-10-13T09:26:16;20.23;;;14.40;;
9823;SDS011;4951;50.778;7.196;2022-10-13T09:28:46;21.20;;;12.30;;
9823;SDS011;4951;50.778;7.196;2022-10-13T09:31:15;25.53;;;13.77;;
9823;SDS011;4951;50.778;7.196;2022-10-13T09:33:46;26.00;;;13.20;;
9823;SDS011;4951;50.778;7.196;2022-10-13T09:36:25;17.07;;;12.40;;
9823;SDS011;4951;50.778;7.196;2022-10-13T09:39:06;22.30;;;13.43;;
9823;SDS011;4951;50.778;7.196;2022-10-13T09:41:38;26.30;;;13.97;;
9823;SDS011;4951;50.778;7.196;2022-10-13T09:44:10;22.10;;;12.47;;
9823;SDS011;4951;50.778;7.196;2022-10-13T09:46:44;17.97;;;12.83;;
9823;SDS011;4951;50.778;7.196;2022-10-13T09:49:33;17.13;;;11.67;;
9823;SDS011;4951;50.778;7.196;2022-10-13T09:52:13;18.47;;;11.57;;
9823;SDS011;4951;50.778;7.196;2022-10-13T09:54:43;17.37;;;12.03;;
9823;SDS011;4951;50.778;7.196;2022-10-13T09:57:19;21.37;;;13.37;;
9823;SDS011;4951;50.778;7.196;2022-10-13T09:59:57;18.63;;;13.00;;
9823;SDS011;4951;50.778;7.196;2022-10-13T10:02:37;19.83;;;12.80;;
9823;SDS011;4951;50.778;7.196;2022-10-13T10:05:14;17.70;;;10.87;;
9823;SDS011;4951;50.778;7.196;2022-10-13T10:07:48;19.40;;;12.50;;
9823;SDS011;4951;50.778;7.196;2022-10-13T10:10:21;22.13;;;12.70;;
9823;SDS011;4951;50.778;7.196;2022-10-13T10:12:52;20.93;;;12.07;;
9823;SDS011;4951;50.778;7.196;2022-10-13T10:15:20;19.23;;;11.67;;
9823;SDS011;4951;50.778;7.196;2022-10-13T10:17:51;19.23;;;12.03;;
9823;SDS011;4951;50.778;7.196;2022-10-13T10:20:34;19.60;;;11.07;;
9823;SDS011;4951;50.778;7.196;2022-10-13T10:23:16;17.37;;;10.83;;
9823;SDS011;4951;50.778;7.196;2022-10-13T10:25:48;16.90;;;11.77;;
9823;SDS011;4951;50.778;7.196;2022-10-13T10:28:31;16.67;;;11.33;;
9823;SDS011;4951;50.778;7.196;2022-10-13T10:31:10;17.43;;;10.70;;
9823;SDS011;4951;50.778;7.196;2022-10-13T10:33:47;18.83;;;11.07;;
9823;SDS011;4951;50.778;7.196;2022-10-13T10:36:21;17.30;;;10.93;;
9823;SDS011;4951;50.778;7.196;2022-10-13T10:38:53;15.47;;;10.60;;
9823;SDS011;4951;50.778;7.196;2022-10-13T10:41:31;22.17;;;10.83;;
9823;SDS011;4951;50.778;7.196;2022-10-13T10:44:06;13.93;;;9.73;;
9823;SDS011;4951;50.778;7.196;2022-10-13T10:46:38;14.87;;;9.10;;
9823;SDS011;4951;50.778;7.196;2022-10-13T10:49:11;12.90;;;8.70;;
9823;SDS011;4951;50.778;7.196;2022-10-13T10:51:43;16.40;;;8.93;;
9823;SDS011;4951;50.778;7.196;2022-10-13T10:54:18;12.07;;;8.53;;
9823;SDS011;4951;50.778;7.196;2022-10-13T10:56:52;14.40;;;7.33;;
9823;SDS011;4951;50.778;7.196;2022-10-13T10:59:24;10.47;;;7.20;;
9823;SDS011;4951;50.778;7.196;2022-10-13T11:01:59;10.10;;;8.03;;
9823;SDS011;4951;50.778;7.196;2022-10-13T11:04:39;10.73;;;7.37;;
9823;SDS011;4951;50.778;7.196;2022-10-13T11:07:11;9.80;;;7.30;;
9823;SDS011;4951;50.778;7.196;2022-10-13T11:15:28;9.83;;;6.73;;
9823;SDS011;4951;50.778;7.196;2022-10-13T11:21:06;13.87;;;7.33;;
9823;SDS011;4951;50.778;7.196;2022-10-13T11:23:34;9.83;;;6.43;;
9823;SDS011;4951;50.778;7.196;2022-10-13T11:26:31;10.77;;;6.73;;
9823;SDS011;4951;50.778;7.196;2022-10-13T11:29:18;10.87;;;7.03;;
9823;SDS011;4951;50.778;7.196;2022-10-13T11:35:21;12.70;;;7.77;;
9823;SDS011;4951;50.778;7.196;2022-10-13T11:37:52;11.33;;;6.73;;
9823;SDS011;4951;50.778;7.196;2022-10-13T11:40:31;11.23;;;7.20;;
9823;SDS011;4951;50.778;7.196;2022-10-13T11:46:06;11.57;;;6.87;;
9823;SDS011;4951;50.778;7.196;2022-10-13T11:48:54;8.13;;;5.77;;
9823;SDS011;4951;50.778;7.196;2022-10-13T11:51:34;12.67;;;7.10;;
9823;SDS011;4951;50.778;7.196;2022-10-13T11:54:12;10.73;;;7.03;;
9823;SDS011;4951;50.778;7.196;2022-10-13T11:56:48;12.73;;;7.07;;
9823;SDS011;4951;50.778;7.196;2022-10-13T11:59:21;12.73;;;6.93;;
9823;SDS011;4951;50.778;7.196;2022-10-13T12:01:56;12.23;;;6.80;;
9823;SDS011;4951;50.778;7.196;2022-10-13T12:04:27;9.47;;;6.37;;
9823;SDS011;4951;50.778;7.196;2022-10-13T12:06:55;14.50;;;6.87;;
9823;SDS011;4951;50.778;7.196;2022-10-13T12:09:24;10.17;;;6.57;;
9823;SDS011;4951;50.778;7.196;2022-10-13T12:11:57;10.17;;;6.57;;
9823;SDS011;4951;50.778;7.196;2022-10-13T12:14:28;8.17;;;6.50;;
9823;SDS011;4951;50.778;7.196;2022-10-13T12:16:59;11.97;;;6.37;;
9823;SDS011;4951;50.778;7.196;2022-10-13T12:19:28;9.80;;;6.03;;
9823;SDS011;4951;50.778;7.196;2022-10-13T12:21:57;13.17;;;6.27;;
9823;SDS011;4951;50.778;7.196;2022-10-13T12:24:26;11.70;;;6.23;;
9823;SDS011;4951;50.778;7.196;2022-10-13T12:26:55;11.00;;;6.43;;
9823;SDS011;4951;50.778;7.196;2022-10-13T12:29:24;8.53;;;6.17;;
9823;SDS011;4951;50.778;7.196;2022-10-13T12:31:53;9.43;;;6.03;;
9823;SDS011;4951;50.778;7.196;2022-10-13T12:34:24;7.10;;;5.47;;
9823;SDS011;4951;50.778;7.196;2022-10-13T12:36:54;10.17;;;5.60;;
9823;SDS011;4951;50.778;7.196;2022-10-13T12:39:24;9.10;;;5.67;;
9823;SDS011;4951;50.778;7.196;2022-10-13T12:41:52;11.03;;;5.43;;
9823;SDS011;4951;50.778;7.196;2022-10-13T12:44:22;10.50;;;5.67;;
9823;SDS011;4951;50.778;7.196;2022-10-13T12:46:52;6.30;;;4.77;;
9823;SDS011;4951;50.778;7.196;2022-10-13T12:49:21;12.03;;;5.70;;
9823;SDS011;4951;50.778;7.196;2022-10-13T12:51:51;6.07;;;4.57;;
9823;SDS011;4951;50.778;7.196;2022-10-13T12:54:23;7.17;;;5.10;;
9823;SDS011;4951;50.778;7.196;2022-10-13T12:56:53;9.07;;;5.13;;
9823;SDS011;4951;50.778;7.196;2022-10-13T12:59:22;6.93;;;4.83;;
9823;SDS011;4951;50.778;7.196;2022-10-13T13:01:51;8.17;;;4.80;;
9823;SDS011;4951;50.778;7.196;2022-10-13T13:04:30;9.43;;;5.73;;
9823;SDS011;4951;50.778;7.196;2022-10-13T13:07:30;6.77;;;5.17;;
9823;SDS011;4951;50.778;7.196;2022-10-13T13:10:07;6.80;;;5.13;;
9823;SDS011;4951;50.778;7.196;2022-10-13T13:12:41;8.90;;;5.80;;
9823;SDS011;4951;50.778;7.196;2022-10-13T13:21:06;10.07;;;6.13;;
9823;SDS011;4951;50.778;7.196;2022-10-13T13:23:37;10.20;;;6.23;;
9823;SDS011;4951;50.778;7.196;2022-10-13T13:26:06;8.67;;;5.50;;
9823;SDS011;4951;50.778;7.196;2022-10-13T13:28:39;10.33;;;5.80;;
9823;SDS011;4951;50.778;7.196;2022-10-13T13:31:12;7.97;;;5.57;;
9823;SDS011;4951;50.778;7.196;2022-10-13T13:33:39;10.13;;;5.87;;
9823;SDS011;4951;50.778;7.196;2022-10-13T13:36:11;11.53;;;5.80;;
9823;SDS011;4951;50.778;7.196;2022-10-13T13:38:42;8.23;;;5.00;;
9823;SDS011;4951;50.778;7.196;2022-10-13T13:41:09;8.10;;;6.37;;
9823;SDS011;4951;50.778;7.196;2022-10-13T13:43:37;8.10;;;5.50;;
9823;SDS011;4951;50.778;7.196;2022-10-13T13:46:05;9.97;;;6.03;;
9823;SDS011;4951;50.778;7.196;2022-10-13T13:48:33;9.30;;;6.93;;
9823;SDS011;4951;50.778;7.196;2022-10-13T13:51:00;13.50;;;6.60;;
9823;SDS011;4951;50.778;7.196;2022-10-13T13:53:29;11.20;;;6.93;;
9823;SDS011;4951;50.778;7.196;2022-10-13T13:55:56;8.87;;;6.03;;
9823;SDS011;4951;50.778;7.196;2022-10-13T13:58:23;10.00;;;6.07;;
9823;SDS011;4951;50.778;7.196;2022-10-13T14:00:50;9.57;;;6.27;;
9823;SDS011;4951;50.778;7.196;2022-10-13T14:03:17;8.60;;;6.57;;
9823;SDS011;4951;50.778;7.196;2022-10-13T14:05:45;7.90;;;5.80;;
9823;SDS011;4951;50.778;7.196;2022-10-13T14:08:12;10.67;;;6.67;;
9823;SDS011;4951;50.778;7.196;2022-10-13T14:10:41;9.57;;;5.07;;
9823;SDS011;4951;50.778;7.196;2022-10-13T14:13:08;10.07;;;6.33;;
9823;SDS011;4951;50.778;7.196;2022-10-13T14:15:35;10.53;;;6.33;;
9823;SDS011;4951;50.778;7.196;2022-10-13T14:18:02;9.47;;;7.07;;
9823;SDS011;4951;50.778;7.196;2022-10-13T14:20:29;7.93;;;5.27;;
9823;SDS011;4951;50.778;7.196;2022-10-13T14:22:56;10.07;;;6.43;;
9823;SDS011;4951;50.778;7.196;2022-10-13T14:25:23;7.67;;;5.60;;
9823;SDS011;4951;50.778;7.196;2022-10-13T14:27:52;8.87;;;6.40;;
9823;SDS011;4951;50.778;7.196;2022-10-13T14:30:19;9.20;;;6.60;;
9823;SDS011;4951;50.778;7.196;2022-10-13T14:32:46;10.30;;;6.20;;
9823;SDS011;4951;50.778;7.196;2022-10-13T14:35:13;10.53;;;7.80;;
9823;SDS011;4951;50.778;7.196;2022-10-13T14:37:40;10.27;;;7.53;;
9823;SDS011;4951;50.778;7.196;2022-10-13T14:40:07;8.93;;;6.57;;
9823;SDS011;4951;50.778;7.196;2022-10-13T14:42:35;12.77;;;8.03;;
9823;SDS011;4951;50.778;7.196;2022-10-13T14:45:06;12.07;;;7.27;;
9823;SDS011;4951;50.778;7.196;2022-10-13T14:47:34;9.20;;;6.63;;
9823;SDS011;4951;50.778;7.196;2022-10-13T14:50:01;10.67;;;7.90;;
9823;SDS011;4951;50.778;7.196;2022-10-13T14:52:28;11.47;;;7.20;;
9823;SDS011;4951;50.778;7.196;2022-10-13T14:54:55;13.87;;;8.27;;
9823;SDS011;4951;50.778;7.196;2022-10-13T14:57:22;12.27;;;9.10;;
9823;SDS011;4951;50.778;7.196;2022-10-13T14:59:49;14.50;;;9.00;;
9823;SDS011;4951;50.778;7.196;2022-10-13T15:02:17;12.93;;;8.27;;
9823;SDS011;4951;50.778;7.196;2022-10-13T15:04:53;10.87;;;7.20;;
9823;SDS011;4951;50.778;7.196;2022-10-13T15:07:20;14.33;;;8.60;;
9823;SDS011;4951;50.778;7.196;2022-10-13T15:09:47;11.00;;;6.90;;
9823;SDS011;4951;50.778;7.196;2022-10-13T15:12:15;11.10;;;7.83;;
9823;SDS011;4951;50.778;7.196;2022-10-13T15:14:42;11.80;;;7.97;;
9823;SDS011;4951;50.778;7.196;2022-10-13T15:17:09;13.07;;;9.07;;
9823;SDS011;4951;50.778;7.196;2022-10-13T15:19:38;12.83;;;9.27;;
9823;SDS011;4951;50.778;7.196;2022-10-13T15:22:07;11.63;;;9.83;;
9823;SDS011;4951;50.778;7.196;2022-10-13T15:24:34;15.53;;;10.13;;
9823;SDS011;4951;50.778;7.196;2022-10-13T15:27:02;13.07;;;9.53;;
9823;SDS011;4951;50.778;7.196;2022-10-13T15:29:30;14.27;;;9.80;;
9823;SDS011;4951;50.778;7.196;2022-10-13T15:32:05;14.10;;;9.77;;